Rutland, ND (58067)

3:51 AM CDT on July 22, 2017 (GMT -0500)
Calvin Jacobson | | Change Station
Active Advisory: Severe Thunderstorm Warning

Elev 1214 ft 46.05 °N, 97.51 °W | Updated 26 seconds ago

Mostly Cloudy
Mostly Cloudy
72.7 °F
Feels Like 72.7 °F
N
5.1
Wind Variable Wind from West
Gusts 7.4 mph

Today
High -- | Low -- °F
--% Chance of Precip.
Yesterday
High -- | Low -- °F
Precip. -- in
Pressure 29.80 in
Visibility 10.0 miles
Clouds Scattered Clouds 1300 ft
Mostly Cloudy 1800 ft
Overcast 8000 ft
Dew Point 71 °F
Humidity 94%
Rainfall 0.18 in
Snow Depth Not available.
6:01 AM 9:11 PM
Waning Crescent, 2% visible
METAR KGWR 220835Z AUTO 31005KT 10SM SCT013 BKN018 OVC080 22/21 A2980 RMK A01
Pressure 29.80 in
Visibility 10.0 miles
Clouds Scattered Clouds 1300 ft
Mostly Cloudy 1800 ft
Overcast 8000 ft
Dew Point 71 °F
Humidity 94%
Rainfall 0.18 in
Snow Depth Not available.
6:01 AM 9:11 PM
Waning Crescent, 2% visible
METAR KGWR 220835Z AUTO 31005KT 10SM SCT013 BKN018 OVC080 22/21 A2980 RMK A01

Get Your Daily Forecast Email!

Thanks for signing up!

Be on the lookout for a verification email in your inbox.

You'll start receiving severe weather alerts in your inbox..

×

10-Day Weather Forecast

Almanac

Astronomy

Jul. 22, 2017 Rise Set
Actual Time
Civil Twilight
Nautical Twilight
Astronomical Twilight
Moon
Length of Visible Light
Length of Day
Tomorrow will be .
, % of the Moon is Illuminated

Today's Extremes

State Highs State Lows

Community

WunderPhotos

Category 6

Welcome to Category 6. This is the collective home for Weather Underground's featured writeups by Dr. Jeff Masters (right), Bob Henson (left), Chris Burt, and other regular contributors.

Nearby

Air Quality

  Air Quality AQ Index Pollutant
Not available.

Snow Depth

Station Depth Elevation

Earthquake Activity

City Distance Mag. Time & Date
Minimum magnitude displayed is 2.5.

Coastal Water Temperatures

Place Temperature

Stations

Nearby Weather Stations

Station Location Temp. Windchill Dew Point Humidity Wind Precip. Elev Updated Type
                   

Watches & Warnings

Severe Thunderstorm Warning
Issued: 3:45 AM CDT Jul. 22, 2017 – National Weather Service

... The Severe Thunderstorm Warning for northeastern Sargent County is
cancelled...

The storms which prompted the warning have moved out of the warned
area. Therefore, the warning has been cancelled.

Lat... Lon 4640 9735 4659 9749 4681 9660 4667 9618
      4663 9622 4663 9628 4656 9628 4631 9652
      4597 9688
time... Mot... loc 0843z 290deg 37kt 4674 9643 4652 9682 4639 9716